sensor_id;sensor_type;location;lat;lon;timestamp;pressure;altitude;pressure_sealevel;temperature;humidity
50867;BME280;36839;51.946;21.002;2022-08-25T00:02:12;100467.31;;;20.17;100.00
50867;BME280;36839;51.946;21.002;2022-08-25T00:04:43;100466.73;;;20.18;100.00
50867;BME280;36839;51.946;21.002;2022-08-25T00:07:11;100466.73;;;20.18;100.00
50867;BME280;36839;51.946;21.002;2022-08-25T00:09:42;100463.53;;;20.13;100.00
50867;BME280;36839;51.946;21.002;2022-08-25T00:12:12;100453.86;;;20.08;100.00
50867;BME280;36839;51.946;21.002;2022-08-25T00:14:41;100452.73;;;20.09;100.00
50867;BME280;36839;51.946;21.002;2022-08-25T00:17:12;100452.45;;;20.08;100.00
50867;BME280;36839;51.946;21.002;2022-08-25T00:19:42;100449.98;;;20.07;100.00
50867;BME280;36839;51.946;21.002;2022-08-25T00:22:09;100449.98;;;20.07;100.00
50867;BME280;36839;51.946;21.002;2022-08-25T00:24:40;100439.84;;;20.08;100.00
50867;BME280;36839;51.946;21.002;2022-08-25T00:27:11;100439.84;;;20.08;100.00
50867;BME280;36839;51.946;21.002;2022-08-25T00:29:39;100439.26;;;20.09;100.00
50867;BME280;36839;51.946;21.002;2022-08-25T00:32:08;100442.64;;;20.08;100.00
50867;BME280;36839;51.946;21.002;2022-08-25T00:34:39;100439.59;;;20.07;100.00
50867;BME280;36839;51.946;21.002;2022-08-25T00:37:08;100439.59;;;20.07;100.00
50867;BME280;36839;51.946;21.002;2022-08-25T00:39:38;100441.42;;;20.12;100.00
50867;BME280;36839;51.946;21.002;2022-08-25T00:42:11;100438.05;;;20.12;100.00
50867;BME280;36839;51.946;21.002;2022-08-25T00:44:41;100440.60;;;20.11;100.00
50867;BME280;36839;51.946;21.002;2022-08-25T00:47:13;100435.62;;;20.08;100.00
50867;BME280;36839;51.946;21.002;2022-08-25T00:49:42;100441.33;;;20.06;100.00
50867;BME280;36839;51.946;21.002;2022-08-25T00:52:23;100433.00;;;20.03;100.00
50867;BME280;36839;51.946;21.002;2022-08-25T00:57:23;100430.87;;;20.00;100.00
50867;BME280;36839;51.946;21.002;2022-08-25T00:59:50;100432.84;;;20.00;100.00
50867;BME280;36839;51.946;21.002;2022-08-25T01:02:17;100430.05;;;20.00;100.00
50867;BME280;36839;51.946;21.002;2022-08-25T01:04:46;100430.05;;;20.00;100.00
50867;BME280;36839;51.946;21.002;2022-08-25T01:07:18;100432.27;;;20.00;100.00
50867;BME280;36839;51.946;21.002;2022-08-25T01:09:49;100433.91;;;20.01;100.00
50867;BME280;36839;51.946;21.002;2022-08-25T01:12:23;100432.52;;;20.01;100.00
50867;BME280;36839;51.946;21.002;2022-08-25T01:14:52;100430.78;;;20.03;100.00
50867;BME280;36839;51.946;21.002;2022-08-25T01:17:24;100430.78;;;20.03;100.00
50867;BME280;36839;51.946;21.002;2022-08-25T01:19:54;100429.63;;;20.04;100.00
50867;BME280;36839;51.946;21.002;2022-08-25T01:22:22;100437.45;;;20.04;100.00
50867;BME280;36839;51.946;21.002;2022-08-25T01:24:58;100439.52;;;20.01;100.00
50867;BME280;36839;51.946;21.002;2022-08-25T01:27:29;100437.88;;;20.00;100.00
50867;BME280;36839;51.946;21.002;2022-08-25T01:29:59;100438.17;;;19.98;100.00
50867;BME280;36839;51.946;21.002;2022-08-25T01:32:25;100443.20;;;19.99;100.00
50867;BME280;36839;51.946;21.002;2022-08-25T01:34:53;100436.20;;;19.99;100.00
50867;BME280;36839;51.946;21.002;2022-08-25T01:37:23;100442.38;;;19.98;100.00
50867;BME280;36839;51.946;21.002;2022-08-25T01:39:51;100439.33;;;19.97;100.00
50867;BME280;36839;51.946;21.002;2022-08-25T01:42:28;100439.33;;;19.97;100.00
50867;BME280;36839;51.946;21.002;2022-08-25T01:44:58;100441.56;;;19.98;100.00
50867;BME280;36839;51.946;21.002;2022-08-25T01:47:27;100439.09;;;19.96;100.00
50867;BME280;36839;51.946;21.002;2022-08-25T01:49:57;100447.25;;;19.95;100.00
50867;BME280;36839;51.946;21.002;2022-08-25T01:52:36;100447.92;;;19.92;100.00
50867;BME280;36839;51.946;21.002;2022-08-25T01:55:03;100443.47;;;19.91;100.00
50867;BME280;36839;51.946;21.002;2022-08-25T01:57:34;100448.31;;;19.88;100.00
50867;BME280;36839;51.946;21.002;2022-08-25T02:00:10;100447.33;;;19.84;100.00
50867;BME280;36839;51.946;21.002;2022-08-25T02:02:40;100441.47;;;19.83;100.00
50867;BME280;36839;51.946;21.002;2022-08-25T02:05:09;100441.47;;;19.83;100.00
50867;BME280;36839;51.946;21.002;2022-08-25T02:07:36;100432.48;;;19.84;100.00
50867;BME280;36839;51.946;21.002;2022-08-25T02:10:05;100441.96;;;19.85;100.00
50867;BME280;36839;51.946;21.002;2022-08-25T02:12:34;100438.67;;;19.83;100.00
50867;BME280;36839;51.946;21.002;2022-08-25T02:15:05;100439.58;;;19.81;100.00
50867;BME280;36839;51.946;21.002;2022-08-25T02:17:33;100430.89;;;19.80;100.00
50867;BME280;36839;51.946;21.002;2022-08-25T02:20:04;100438.23;;;19.79;100.00
50867;BME280;36839;51.946;21.002;2022-08-25T02:22:36;100438.23;;;19.79;100.00
50867;BME280;36839;51.946;21.002;2022-08-25T02:25:03;100436.92;;;19.76;100.00
50867;BME280;36839;51.946;21.002;2022-08-25T02:27:34;100432.55;;;19.73;100.00
50867;BME280;36839;51.946;21.002;2022-08-25T02:30:04;100438.48;;;19.71;100.00
50867;BME280;36839;51.946;21.002;2022-08-25T02:32:34;100442.00;;;19.65;100.00
50867;BME280;36839;51.946;21.002;2022-08-25T02:35:02;100433.25;;;19.58;100.00
50867;BME280;36839;51.946;21.002;2022-08-25T02:37:31;100440.87;;;19.55;100.00
50867;BME280;36839;51.946;21.002;2022-08-25T02:40:03;100439.23;;;19.54;100.00
50867;BME280;36839;51.946;21.002;2022-08-25T02:42:34;100442.28;;;19.55;100.00
50867;BME280;36839;51.946;21.002;2022-08-25T02:45:05;100438.73;;;19.52;100.00
50867;BME280;36839;51.946;21.002;2022-08-25T02:47:35;100434.67;;;19.47;100.00
50867;BME280;36839;51.946;21.002;2022-08-25T02:50:06;100434.67;;;19.47;100.00
50867;BME280;36839;51.946;21.002;2022-08-25T02:52:37;100425.33;;;19.40;100.00
50867;BME280;36839;51.946;21.002;2022-08-25T02:55:08;100432.33;;;19.40;100.00
50867;BME280;36839;51.946;21.002;2022-08-25T02:57:37;100425.00;;;19.42;100.00
50867;BME280;36839;51.946;21.002;2022-08-25T03:00:11;100423.68;;;19.39;100.00
50867;BME280;36839;51.946;21.002;2022-08-25T03:02:39;100420.72;;;19.36;100.00
50867;BME280;36839;51.946;21.002;2022-08-25T03:05:08;100420.72;;;19.36;100.00
50867;BME280;36839;51.946;21.002;2022-08-25T03:07:37;100417.99;;;19.33;100.00
50867;BME280;36839;51.946;21.002;2022-08-25T03:10:14;100415.00;;;19.30;100.00
50867;BME280;36839;51.946;21.002;2022-08-25T03:12:43;100420.35;;;19.29;100.00
50867;BME280;36839;51.946;21.002;2022-08-25T03:15:13;100414.50;;;19.28;100.00
50867;BME280;36839;51.946;21.002;2022-08-25T03:17:44;100414.58;;;19.25;100.00
50867;BME280;36839;51.946;21.002;2022-08-25T03:20:12;100412.41;;;19.22;100.00
50867;BME280;36839;51.946;21.002;2022-08-25T03:22:41;100410.43;;;19.23;100.00
50867;BME280;36839;51.946;21.002;2022-08-25T03:25:08;100409.44;;;19.19;100.00
50867;BME280;36839;51.946;21.002;2022-08-25T03:27:55;100406.39;;;19.18;100.00
50867;BME280;36839;51.946;21.002;2022-08-25T03:30:23;100405.00;;;19.18;100.00
50867;BME280;36839;51.946;21.002;2022-08-25T03:32:51;100409.85;;;19.15;100.00
50867;BME280;36839;51.946;21.002;2022-08-25T03:35:21;100411.30;;;19.12;100.00
50867;BME280;36839;51.946;21.002;2022-08-25T03:37:49;100409.41;;;19.10;100.00
50867;BME280;36839;51.946;21.002;2022-08-25T03:40:19;100409.23;;;19.06;100.00
50867;BME280;36839;51.946;21.002;2022-08-25T03:42:51;100409.48;;;19.07;100.00
50867;BME280;36839;51.946;21.002;2022-08-25T03:45:18;100412.86;;;19.07;100.00
50867;BME280;36839;51.946;21.002;2022-08-25T03:47:47;100415.33;;;19.08;100.00
50867;BME280;36839;51.946;21.002;2022-08-25T03:50:16;100415.33;;;19.08;100.00
50867;BME280;36839;51.946;21.002;2022-08-25T03:52:43;100417.72;;;19.12;100.00
50867;BME280;36839;51.946;21.002;2022-08-25T03:55:13;100419.48;;;19.20;100.00
50867;BME280;36839;51.946;21.002;2022-08-25T03:57:41;100417.44;;;19.23;100.00
50867;BME280;36839;51.946;21.002;2022-08-25T04:00:12;100408.98;;;19.25;100.00
50867;BME280;36839;51.946;21.002;2022-08-25T04:02:42;100415.08;;;19.27;100.00
50867;BME280;36839;51.946;21.002;2022-08-25T04:05:09;100409.15;;;19.29;100.00
50867;BME280;36839;51.946;21.002;2022-08-25T04:07:37;100408.81;;;19.30;100.00
50867;BME280;36839;51.946;21.002;2022-08-25T04:10:07;100398.44;;;19.31;100.00
50867;BME280;36839;51.946;21.002;2022-08-25T04:12:35;100399.52;;;19.32;100.00
50867;BME280;36839;51.946;21.002;2022-08-25T04:15:05;100399.52;;;19.32;100.00
50867;BME280;36839;51.946;21.002;2022-08-25T04:17:40;100399.48;;;19.44;100.00
50867;BME280;36839;51.946;21.002;2022-08-25T04:20:03;100395.45;;;19.47;100.00
50867;BME280;36839;51.946;21.002;2022-08-25T04:22:33;100396.19;;;19.50;100.00
50867;BME280;36839;51.946;21.002;2022-08-25T04:25:05;100390.78;;;19.54;100.00
50867;BME280;36839;51.946;21.002;2022-08-25T04:27:35;100397.40;;;19.58;100.00
50867;BME280;36839;51.946;21.002;2022-08-25T04:30:04;100397.40;;;19.58;100.00
50867;BME280;36839;51.946;21.002;2022-08-25T04:32:35;100409.20;;;19.66;100.00
50867;BME280;36839;51.946;21.002;2022-08-25T04:35:03;100401.48;;;19.72;100.00
50867;BME280;36839;51.946;21.002;2022-08-25T04:37:31;100400.97;;;19.78;100.00
50867;BME280;36839;51.946;21.002;2022-08-25T04:40:02;100400.34;;;19.81;100.00
50867;BME280;36839;51.946;21.002;2022-08-25T04:42:33;100400.34;;;19.81;100.00
50867;BME280;36839;51.946;21.002;2022-08-25T04:45:00;100393.74;;;19.94;100.00
50867;BME280;36839;51.946;21.002;2022-08-25T04:47:30;100388.23;;;20.01;100.00
50867;BME280;36839;51.946;21.002;2022-08-25T04:49:59;100388.23;;;20.01;100.00
50867;BME280;36839;51.946;21.002;2022-08-25T04:52:30;100398.35;;;20.08;100.00
50867;BME280;36839;51.946;21.002;2022-08-25T04:54:57;100390.19;;;20.17;100.00
50867;BME280;36839;51.946;21.002;2022-08-25T04:57:27;100394.00;;;20.21;100.00
50867;BME280;36839;51.946;21.002;2022-08-25T04:59:56;100397.72;;;20.28;100.00
50867;BME280;36839;51.946;21.002;2022-08-25T05:02:24;100393.08;;;20.32;100.00
50867;BME280;36839;51.946;21.002;2022-08-25T05:04:53;100396.70;;;20.41;100.00
50867;BME280;36839;51.946;21.002;2022-08-25T05:07:23;100401.99;;;20.51;100.00
50867;BME280;36839;51.946;21.002;2022-08-25T05:09:49;100388.77;;;20.61;100.00
50867;BME280;36839;51.946;21.002;2022-08-25T05:12:17;100397.91;;;20.72;100.00
50867;BME280;36839;51.946;21.002;2022-08-25T05:14:45;100397.91;;;20.72;100.00
50867;BME280;36839;51.946;21.002;2022-08-25T05:17:15;100399.84;;;20.89;100.00
50867;BME280;36839;51.946;21.002;2022-08-25T05:19:43;100401.56;;;20.96;100.00
50867;BME280;36839;51.946;21.002;2022-08-25T05:22:16;100402.70;;;21.04;100.00
50867;BME280;36839;51.946;21.002;2022-08-25T05:24:45;100402.70;;;21.04;100.00
50867;BME280;36839;51.946;21.002;2022-08-25T05:27:15;100393.66;;;21.13;100.00
50867;BME280;36839;51.946;21.002;2022-08-25T05:29:41;100393.66;;;21.13;100.00
50867;BME280;36839;51.946;21.002;2022-08-25T05:32:08;100396.36;;;21.16;100.00
50867;BME280;36839;51.946;21.002;2022-08-25T05:34:41;100392.19;;;21.22;100.00
50867;BME280;36839;51.946;21.002;2022-08-25T05:37:10;100393.00;;;21.22;100.00
50867;BME280;36839;51.946;21.002;2022-08-25T05:39:39;100395.58;;;21.21;100.00
50867;BME280;36839;51.946;21.002;2022-08-25T05:42:07;100395.58;;;21.21;100.00
50867;BME280;36839;51.946;21.002;2022-08-25T05:44:35;100394.16;;;21.30;100.00
50867;BME280;36839;51.946;21.002;2022-08-25T05:47:02;100396.45;;;21.36;100.00
50867;BME280;36839;51.946;21.002;2022-08-25T05:49:28;100398.73;;;21.43;100.00
50867;BME280;36839;51.946;21.002;2022-08-25T05:51:56;100398.73;;;21.43;100.00
50867;BME280;36839;51.946;21.002;2022-08-25T05:54:24;100401.92;;;21.48;100.00
50867;BME280;36839;51.946;21.002;2022-08-25T05:56:52;100400.95;;;21.58;100.00
50867;BME280;36839;51.946;21.002;2022-08-25T05:59:25;100399.02;;;21.65;100.00
50867;BME280;36839;51.946;21.002;2022-08-25T06:01:56;100399.02;;;21.65;100.00
50867;BME280;36839;51.946;21.002;2022-08-25T06:04:42;100399.14;;;21.68;100.00
50867;BME280;36839;51.946;21.002;2022-08-25T06:07:10;100401.91;;;21.77;100.00
50867;BME280;36839;51.946;21.002;2022-08-25T06:09:41;100399.02;;;21.80;100.00
50867;BME280;36839;51.946;21.002;2022-08-25T06:12:10;100407.58;;;21.83;100.00
50867;BME280;36839;51.946;21.002;2022-08-25T06:14:37;100407.47;;;21.86;100.00
50867;BME280;36839;51.946;21.002;2022-08-25T06:17:09;100412.16;;;21.88;100.00
50867;BME280;36839;51.946;21.002;2022-08-25T06:19:39;100404.81;;;21.89;100.00
50867;BME280;36839;51.946;21.002;2022-08-25T06:22:06;100404.81;;;21.89;100.00
50867;BME280;36839;51.946;21.002;2022-08-25T06:24:35;100408.39;;;21.99;100.00
50867;BME280;36839;51.946;21.002;2022-08-25T06:27:05;100408.39;;;21.99;100.00
50867;BME280;36839;51.946;21.002;2022-08-25T06:29:36;100411.05;;;22.10;100.00
50867;BME280;36839;51.946;21.002;2022-08-25T06:32:05;100408.61;;;22.14;100.00
50867;BME280;36839;51.946;21.002;2022-08-25T06:34:33;100409.13;;;22.22;100.00
50867;BME280;36839;51.946;21.002;2022-08-25T06:37:03;100409.16;;;22.29;100.00
50867;BME280;36839;51.946;21.002;2022-08-25T06:39:34;100415.30;;;22.37;100.00
50867;BME280;36839;51.946;21.002;2022-08-25T06:42:05;100409.44;;;22.42;100.00
50867;BME280;36839;51.946;21.002;2022-08-25T06:44:36;100414.28;;;22.47;100.00
50867;BME280;36839;51.946;21.002;2022-08-25T06:47:07;100413.94;;;22.49;100.00
50867;BME280;36839;51.946;21.002;2022-08-25T06:49:36;100413.00;;;22.51;100.00
50867;BME280;36839;51.946;21.002;2022-08-25T06:52:05;100409.48;;;22.54;100.00
50867;BME280;36839;51.946;21.002;2022-08-25T06:54:36;100409.48;;;22.54;100.00
50867;BME280;36839;51.946;21.002;2022-08-25T06:57:08;100410.02;;;22.68;100.00
50867;BME280;36839;51.946;21.002;2022-08-25T06:59:36;100414.73;;;22.76;100.00
50867;BME280;36839;51.946;21.002;2022-08-25T07:02:04;100421.13;;;22.86;100.00
50867;BME280;36839;51.946;21.002;2022-08-25T07:04:35;100420.07;;;22.90;100.00
50867;BME280;36839;51.946;21.002;2022-08-25T07:07:04;100414.11;;;22.98;100.00
50867;BME280;36839;51.946;21.002;2022-08-25T07:09:34;100418.26;;;23.13;100.00
50867;BME280;36839;51.946;21.002;2022-08-25T07:12:02;100426.13;;;23.25;100.00
50867;BME280;36839;51.946;21.002;2022-08-25T07:14:36;100421.90;;;23.37;100.00
50867;BME280;36839;51.946;21.002;2022-08-25T07:17:04;100422.16;;;23.51;100.00
50867;BME280;36839;51.946;21.002;2022-08-25T07:19:36;100427.45;;;23.64;100.00
50867;BME280;36839;51.946;21.002;2022-08-25T07:22:04;100427.45;;;23.64;100.00
50867;BME280;36839;51.946;21.002;2022-08-25T07:24:33;100429.57;;;23.80;100.00
50867;BME280;36839;51.946;21.002;2022-08-25T07:27:02;100430.55;;;24.12;99.45
50867;BME280;36839;51.946;21.002;2022-08-25T07:29:31;100437.25;;;24.19;98.10
50867;BME280;36839;51.946;21.002;2022-08-25T07:32:00;100437.25;;;24.19;98.10
50867;BME280;36839;51.946;21.002;2022-08-25T07:34:30;100441.41;;;24.44;96.15
50867;BME280;36839;51.946;21.002;2022-08-25T07:37:20;100435.83;;;24.60;96.59
50867;BME280;36839;51.946;21.002;2022-08-25T07:39:48;100437.89;;;24.75;95.04
50867;BME280;36839;51.946;21.002;2022-08-25T07:42:18;100436.04;;;24.89;93.94
50867;BME280;36839;51.946;21.002;2022-08-25T07:44:49;100441.75;;;25.04;95.31
50867;BME280;36839;51.946;21.002;2022-08-25T07:47:17;100436.58;;;25.22;94.88
50867;BME280;36839;51.946;21.002;2022-08-25T07:49:44;100441.73;;;25.42;95.08
50867;BME280;36839;51.946;21.002;2022-08-25T07:52:14;100441.73;;;25.42;95.08
50867;BME280;36839;51.946;21.002;2022-08-25T07:54:42;100443.63;;;25.70;91.76
50867;BME280;36839;51.946;21.002;2022-08-25T07:57:09;100441.30;;;25.81;90.43
50867;BME280;36839;51.946;21.002;2022-08-25T07:59:41;100441.30;;;25.81;90.43
50867;BME280;36839;51.946;21.002;2022-08-25T08:02:10;100446.92;;;25.87;92.29
50867;BME280;36839;51.946;21.002;2022-08-25T08:04:43;100448.25;;;25.94;92.28
50867;BME280;36839;51.946;21.002;2022-08-25T08:07:17;100449.52;;;25.96;89.05
50867;BME280;36839;51.946;21.002;2022-08-25T08:09:47;100449.52;;;25.96;89.05
50867;BME280;36839;51.946;21.002;2022-08-25T08:12:15;100443.79;;;25.93;88.12
50867;BME280;36839;51.946;21.002;2022-08-25T08:17:10;100445.38;;;26.00;88.64
50867;BME280;36839;51.946;21.002;2022-08-25T08:19:39;100445.89;;;26.05;87.71
50867;BME280;36839;51.946;21.002;2022-08-25T08:22:12;100441.37;;;26.10;88.43
50867;BME280;36839;51.946;21.002;2022-08-25T08:24:43;100440.72;;;26.17;87.45
50867;BME280;36839;51.946;21.002;2022-08-25T08:27:13;100440.72;;;26.17;87.45
50867;BME280;36839;51.946;21.002;2022-08-25T08:29:41;100439.69;;;26.25;86.00
50867;BME280;36839;51.946;21.002;2022-08-25T08:32:12;100439.21;;;26.23;88.21
50867;BME280;36839;51.946;21.002;2022-08-25T08:34:42;100444.59;;;26.28;88.12
50867;BME280;36839;51.946;21.002;2022-08-25T08:37:10;100443.69;;;26.24;84.52
50867;BME280;36839;51.946;21.002;2022-08-25T08:39:41;100443.69;;;26.24;84.52
50867;BME280;36839;51.946;21.002;2022-08-25T08:42:39;100444.82;;;26.29;85.00
50867;BME280;36839;51.946;21.002;2022-08-25T08:51:22;100439.85;;;26.52;83.25
50867;BME280;36839;51.946;21.002;2022-08-25T08:54:09;100437.71;;;26.55;84.59
50867;BME280;36839;51.946;21.002;2022-08-25T08:56:41;100440.32;;;26.63;83.44
50867;BME280;36839;51.946;21.002;2022-08-25T08:59:14;100432.16;;;26.71;82.19
50867;BME280;36839;51.946;21.002;2022-08-25T09:01:45;100437.00;;;26.81;81.76
50867;BME280;36839;51.946;21.002;2022-08-25T09:04:21;100433.27;;;26.86;82.29
50867;BME280;36839;51.946;21.002;2022-08-25T09:06:50;100432.73;;;26.90;81.95
50867;BME280;36839;51.946;21.002;2022-08-25T09:09:26;100432.73;;;26.90;81.95
50867;BME280;36839;51.946;21.002;2022-08-25T09:14:56;100435.55;;;27.10;79.58
50867;BME280;36839;51.946;21.002;2022-08-25T09:23:32;100439.06;;;27.36;81.91
50867;BME280;36839;51.946;21.002;2022-08-25T09:29:12;100433.41;;;27.72;76.30
50867;BME280;36839;51.946;21.002;2022-08-25T09:31:42;100430.91;;;27.80;71.57
50867;BME280;36839;51.946;21.002;2022-08-25T09:34:18;100431.33;;;27.95;71.23
50867;BME280;36839;51.946;21.002;2022-08-25T09:36:50;100429.80;;;28.01;68.88
50867;BME280;36839;51.946;21.002;2022-08-25T09:39:18;100433.07;;;28.16;72.38
50867;BME280;36839;51.946;21.002;2022-08-25T09:41:51;100425.19;;;28.33;73.76
50867;BME280;36839;51.946;21.002;2022-08-25T09:44:26;100428.83;;;28.47;72.04
50867;BME280;36839;51.946;21.002;2022-08-25T09:49:45;100421.48;;;28.79;62.73
50867;BME280;36839;51.946;21.002;2022-08-25T09:55:00;100420.77;;;29.03;60.61
50867;BME280;36839;51.946;21.002;2022-08-25T09:57:32;100414.58;;;29.14;59.61
50867;BME280;36839;51.946;21.002;2022-08-25T10:03:19;100407.35;;;29.23;60.85
50867;BME280;36839;51.946;21.002;2022-08-25T10:05:56;100406.91;;;29.42;61.31
50867;BME280;36839;51.946;21.002;2022-08-25T10:08:38;100401.12;;;29.55;61.54
50867;BME280;36839;51.946;21.002;2022-08-25T10:11:13;100397.38;;;29.68;56.54
50867;BME280;36839;51.946;21.002;2022-08-25T10:13:44;100397.05;;;29.80;56.70
50867;BME280;36839;51.946;21.002;2022-08-25T10:16:22;100395.28;;;29.89;56.38
50867;BME280;36839;51.946;21.002;2022-08-25T10:19:12;100395.28;;;29.89;56.38
50867;BME280;36839;51.946;21.002;2022-08-25T10:21:44;100389.04;;;30.03;55.25
50867;BME280;36839;51.946;21.002;2022-08-25T10:24:12;100389.04;;;30.03;55.25
50867;BME280;36839;51.946;21.002;2022-08-25T10:26:59;100390.42;;;30.24;53.88
50867;BME280;36839;51.946;21.002;2022-08-25T10:32:34;100383.37;;;30.45;50.86
50867;BME280;36839;51.946;21.002;2022-08-25T10:34:48;100385.44;;;30.52;48.84
50867;BME280;36839;51.946;21.002;2022-08-25T10:37:30;100386.46;;;30.53;45.44
50867;BME280;36839;51.946;21.002;2022-08-25T10:40:06;100386.46;;;30.53;45.44
50867;BME280;36839;51.946;21.002;2022-08-25T10:42:51;100380.00;;;30.67;46.06
50867;BME280;36839;51.946;21.002;2022-08-25T10:45:20;100380.00;;;30.67;46.06
50867;BME280;36839;51.946;21.002;2022-08-25T10:48:20;100371.08;;;30.86;46.94
50867;BME280;36839;51.946;21.002;2022-08-25T10:51:05;100371.08;;;30.86;46.94
50867;BME280;36839;51.946;21.002;2022-08-25T10:59:01;100358.87;;;30.93;38.29
50867;BME280;36839;51.946;21.002;2022-08-25T11:02:01;100358.87;;;30.93;38.29
50867;BME280;36839;51.946;21.002;2022-08-25T11:04:28;100357.03;;;30.98;39.25
50867;BME280;36839;51.946;21.002;2022-08-25T11:09:39;100355.63;;;31.02;35.95
50867;BME280;36839;51.946;21.002;2022-08-25T11:12:25;100343.61;;;31.13;39.98
50867;BME280;36839;51.946;21.002;2022-08-25T11:14:52;100344.22;;;31.12;41.04
50867;BME280;36839;51.946;21.002;2022-08-25T11:17:31;100346.27;;;31.19;41.67
50867;BME280;36839;51.946;21.002;2022-08-25T11:19:58;100346.27;;;31.19;41.67
50867;BME280;36839;51.946;21.002;2022-08-25T11:25:31;100336.89;;;31.43;39.87
50867;BME280;36839;51.946;21.002;2022-08-25T11:28:30;100338.53;;;31.48;37.62
50867;BME280;36839;51.946;21.002;2022-08-25T11:30:57;100338.53;;;31.48;37.62
50867;BME280;36839;51.946;21.002;2022-08-25T11:33:30;100340.52;;;31.69;40.43
50867;BME280;36839;51.946;21.002;2022-08-25T11:36:11;100333.36;;;31.72;38.94
50867;BME280;36839;51.946;21.002;2022-08-25T11:38:53;100339.50;;;31.64;37.88
50867;BME280;36839;51.946;21.002;2022-08-25T11:41:36;100337.45;;;31.64;36.93
50867;BME280;36839;51.946;21.002;2022-08-25T11:44:14;100332.55;;;31.72;36.05
50867;BME280;36839;51.946;21.002;2022-08-25T12:00:45;100320.64;;;32.02;36.40
50867;BME280;36839;51.946;21.002;2022-08-25T12:06:26;100320.82;;;32.10;37.49
50867;BME280;36839;51.946;21.002;2022-08-25T12:11:49;100320.94;;;32.29;34.71
50867;BME280;36839;51.946;21.002;2022-08-25T12:25:00;100323.70;;;32.54;31.37
50867;BME280;36839;51.946;21.002;2022-08-25T12:28:06;100319.38;;;32.61;32.55
50867;BME280;36839;51.946;21.002;2022-08-25T12:33:10;100319.56;;;32.62;34.64
50867;BME280;36839;51.946;21.002;2022-08-25T12:35:56;100306.62;;;32.73;32.57
50867;BME280;36839;51.946;21.002;2022-08-25T12:38:44;100308.81;;;32.84;31.38
50867;BME280;36839;51.946;21.002;2022-08-25T12:41:16;100308.81;;;32.84;31.38
50867;BME280;36839;51.946;21.002;2022-08-25T12:43:47;100305.14;;;32.83;33.43
50867;BME280;36839;51.946;21.002;2022-08-25T12:57:00;100305.48;;;32.92;31.27
50867;BME280;36839;51.946;21.002;2022-08-25T12:59:37;100305.09;;;33.13;33.67
50867;BME280;36839;51.946;21.002;2022-08-25T13:10:45;100294.53;;;33.51;32.76
50867;BME280;36839;51.946;21.002;2022-08-25T13:13:28;100294.53;;;33.51;32.76
50867;BME280;36839;51.946;21.002;2022-08-25T13:16:04;100289.97;;;33.76;32.90
50867;BME280;36839;51.946;21.002;2022-08-25T13:18:34;100292.15;;;33.65;33.47
50867;BME280;36839;51.946;21.002;2022-08-25T13:21:20;100285.50;;;33.71;32.36
50867;BME280;36839;51.946;21.002;2022-08-25T13:23:52;100283.62;;;33.76;32.08
50867;BME280;36839;51.946;21.002;2022-08-25T13:26:23;100283.62;;;33.76;32.08
50867;BME280;36839;51.946;21.002;2022-08-25T13:31:55;100283.19;;;33.78;29.96
50867;BME280;36839;51.946;21.002;2022-08-25T13:34:28;100285.54;;;34.05;29.37
50867;BME280;36839;51.946;21.002;2022-08-25T13:37:05;100286.97;;;34.05;29.21
50867;BME280;36839;51.946;21.002;2022-08-25T13:39:50;100286.97;;;34.05;29.21
50867;BME280;36839;51.946;21.002;2022-08-25T13:42:22;100279.97;;;33.91;28.32
50867;BME280;36839;51.946;21.002;2022-08-25T13:44:50;100277.37;;;34.04;30.80
50867;BME280;36839;51.946;21.002;2022-08-25T13:47:32;100278.75;;;34.07;29.52
50867;BME280;36839;51.946;21.002;2022-08-25T13:53:21;100271.45;;;34.03;30.71
50867;BME280;36839;51.946;21.002;2022-08-25T13:55:54;100276.69;;;34.08;28.83
50867;BME280;36839;51.946;21.002;2022-08-25T13:58:31;100282.25;;;34.22;28.70
50867;BME280;36839;51.946;21.002;2022-08-25T14:01:14;100277.11;;;34.37;30.38
50867;BME280;36839;51.946;21.002;2022-08-25T14:03:46;100269.31;;;34.37;30.54
50867;BME280;36839;51.946;21.002;2022-08-25T14:11:33;100271.08;;;34.58;30.72
50867;BME280;36839;51.946;21.002;2022-08-25T14:14:06;100271.08;;;34.58;30.72
50867;BME280;36839;51.946;21.002;2022-08-25T14:16:37;100258.60;;;34.57;29.37
50867;BME280;36839;51.946;21.002;2022-08-25T14:19:07;100258.42;;;34.56;29.38
50867;BME280;36839;51.946;21.002;2022-08-25T14:21:37;100259.19;;;34.60;28.81
50867;BME280;36839;51.946;21.002;2022-08-25T14:24:08;100254.48;;;34.58;28.13
50867;BME280;36839;51.946;21.002;2022-08-25T14:26:40;100259.23;;;34.68;27.75
50867;BME280;36839;51.946;21.002;2022-08-25T14:29:09;100259.23;;;34.68;27.75
50867;BME280;36839;51.946;21.002;2022-08-25T14:31:39;100252.77;;;34.76;28.95
50867;BME280;36839;51.946;21.002;2022-08-25T14:36:44;100243.31;;;34.79;29.19
50867;BME280;36839;51.946;21.002;2022-08-25T14:39:11;100253.66;;;34.46;27.34
50867;BME280;36839;51.946;21.002;2022-08-25T14:41:42;100254.03;;;34.48;28.06
50867;BME280;36839;51.946;21.002;2022-08-25T14:44:11;100253.19;;;34.51;28.10
50867;BME280;36839;51.946;21.002;2022-08-25T14:46:51;100253.19;;;34.51;28.10
50867;BME280;36839;51.946;21.002;2022-08-25T14:49:28;100250.86;;;34.42;27.48
50867;BME280;36839;51.946;21.002;2022-08-25T14:51:56;100250.30;;;34.35;28.38